Time;durP1;ratioP1;P1;durP2;ratioP2;P2;SDS_P1;SDS_P2;PMS_P1;PMS_P2;Temp;Humidity;BMP_temperature;BMP_pressure;BME280_temperature;BME280_humidity;BME280_pressure;Samples;Min_cycle;Max_cycle;Signal;HPM_P1;HPM_P2
2022/05/02 00:00:08;;;;;;;;;;;;;;;;;;2612656;22;19999;-81
2022/05/02 00:01:08;;;;;;;5.67;2.97;;;;;;;;;;2611969;22;19936;-81
2022/05/02 00:02:08;;;;;;;;;;;;;;;;;;2612557;22;20234;-81
2022/05/02 00:03:10;;;;;;;6.32;3.75;;;;;;;;;;2612103;22;19985;-81
2022/05/02 00:04:10;;;;;;;4.15;2.13;;;;;;;;;;2611867;22;20023;-81
2022/05/02 00:05:10;;;;;;;;;;;;;;;;;;2594835;22;20006;-81
2022/05/02 00:06:11;;;;;;;5.15;2.85;;;;;;;;;;2598577;22;19979;-81
2022/05/02 00:07:11;;;;;;;;;;;;;;;;;;2594900;22;20055;-81
2022/05/02 00:08:12;;;;;;;3.27;2.70;;;;;;;;;;2581355;23;19908;-81
2022/05/02 00:09:15;;;;;;;4.15;2.80;;;;;;;;;;2598467;22;19995;-81
2022/05/02 00:10:16;;;;;;;2.90;2.58;;;;;;;;;;2611803;22;19991;-81
2022/05/02 00:11:16;;;;;;;;;;;;;;;;;;2607471;22;20006;-80
2022/05/02 00:12:17;;;;;;;2.60;2.40;;;;;;;;;;2594298;22;19907;-82
2022/05/02 00:13:17;;;;;;;;;;;;;;;;;;2599079;22;20010;-81
2022/05/02 00:14:18;;;;;;;4.40;2.77;;;;;;;;;;2611799;22;19914;-81
2022/05/02 00:15:18;;;;;;;3.33;2.35;;;;;;;;;;2611767;22;20406;-81
2022/05/02 00:16:18;;;;;;;5.80;3.30;;;;;;;;;;2612074;22;20071;-81
2022/05/02 00:17:19;;;;;;;4.40;2.95;;;;;;;;;;2611778;22;20018;-81
2022/05/02 00:18:20;;;;;;;3.72;2.72;;;;;;;;;;2611751;22;19991;-81
2022/05/02 00:19:24;;;;;;;4.13;2.67;;;;;;;;;;2607860;22;20002;-81
2022/05/02 00:20:32;;;;;;;4.85;3.20;;;;;;;;;;2606911;22;20084;-81
2022/05/02 00:21:33;;;;;;;2.53;2.10;;;;;;;;;;2611362;22;19998;-81
2022/05/02 00:22:33;;;;;;;;;;;;;;;;;;2594696;22;20444;-81
2022/05/02 00:23:36;;;;;;;5.23;2.63;;;;;;;;;;2598574;22;20089;-80
2022/05/02 00:24:42;;;;;;;4.40;2.40;;;;;;;;;;2607021;22;20453;-80
2022/05/02 00:25:42;;;;;;;3.53;2.13;;;;;;;;;;2611339;22;20260;-81
2022/05/02 00:26:42;;;;;;;;;;;;;;;;;;2612480;22;19987;-82
2022/05/02 00:27:43;;;;;;;2.33;2.08;;;;;;;;;;2611857;22;19903;-81
2022/05/02 00:28:43;;;;;;;;;;;;;;;;;;2594631;22;19991;-81
2022/05/02 00:29:44;;;;;;;4.03;2.20;;;;;;;;;;2598504;22;19907;-81
2022/05/02 00:30:46;;;;;;;2.97;2.40;;;;;;;;;;2611892;22;19991;-81
2022/05/02 00:31:47;;;;;;;4.75;2.60;;;;;;;;;;2594483;22;19996;-82
2022/05/02 00:32:47;;;;;;;;;;;;;;;;;;2599147;22;19995;-81
2022/05/02 00:33:47;;;;;;;3.80;2.60;;;;;;;;;;2611787;22;19968;-81
2022/05/02 00:34:48;;;;;;;;;;;;;;;;;;2611105;22;20017;-80
2022/05/02 00:35:48;;;;;;;3.08;2.78;;;;;;;;;;2611955;22;19994;-81
2022/05/02 00:36:48;;;;;;;4.75;2.88;;;;;;;;;;2607708;22;19991;-81
2022/05/02 00:37:49;;;;;;;;;;;;;;;;;;2612388;22;19998;-81
2022/05/02 00:38:49;;;;;;;3.80;2.40;;;;;;;;;;2611836;22;20344;-81
2022/05/02 00:39:49;;;;;;;5.57;3.10;;;;;;;;;;2611779;22;20049;-81
2022/05/02 00:40:50;;;;;;;;;;;;;;;;;;2594600;22;20000;-80
2022/05/02 00:41:51;;;;;;;5.17;2.93;;;;;;;;;;2598410;22;19914;-80
2022/05/02 00:42:51;;;;;;;3.58;2.50;;;;;;;;;;2611936;22;20018;-81
2022/05/02 00:43:53;;;;;;;;;;;;;;;;;;2612477;22;20430;-80
2022/05/02 00:44:53;;;;;;;;;;;;;;;;;;2607382;22;19903;-80
2022/05/02 00:45:54;;;;;;;5.47;2.70;;;;;;;;;;2611273;22;19903;-80
2022/05/02 00:46:54;;;;;;;3.30;2.83;;;;;;;;;;2611802;22;20002;-80
2022/05/02 00:47:57;;;;;;;3.95;2.60;;;;;;;;;;2594103;22;20517;-80
2022/05/02 00:48:58;;;;;;;4.75;2.65;;;;;;;;;;2581661;22;19996;-81
2022/05/02 00:49:58;;;;;;;;;;;;;;;;;;2599033;22;20288;-80
2022/05/02 00:50:58;;;;;;;2.97;2.42;;;;;;;;;;2611791;22;19999;-82
2022/05/02 00:51:58;;;;;;;;;;;;;;;;;;2612362;22;20003;-80
2022/05/02 00:53:02;;;;;;;3.07;2.40;;;;;;;;;;2611789;22;20290;-81
2022/05/02 00:54:03;;;;;;;3.03;2.58;;;;;;;;;;2611851;22;19995;-81
2022/05/02 00:55:06;;;;;;;;;;;;;;;;;;2612288;22;20018;-81
2022/05/02 00:56:07;;;;;;;4.40;2.53;;;;;;;;;;2611885;22;19903;-82
2022/05/02 00:57:07;;;;;;;;;;;;;;;;;;2607397;22;20027;-82
2022/05/02 00:58:08;;;;;;;3.58;2.83;;;;;;;;;;2611112;22;19910;-81
2022/05/02 00:59:11;;;;;;;4.55;2.90;;;;;;;;;;2611716;22;20029;-82
2022/05/02 01:00:15;;;;;;;6.53;4.05;;;;;;;;;;2611619;22;20003;-82
2022/05/02 01:01:19;;;;;;;3.80;3.33;;;;;;;;;;2611628;22;20148;-82
2022/05/02 01:02:19;;;;;;;3.95;2.90;;;;;;;;;;2611752;22;19999;-82
2022/05/02 01:03:20;;;;;;;;;;;;;;;;;;2612311;22;20022;-81
2022/05/02 01:04:20;;;;;;;5.68;3.22;;;;;;;;;;2611587;22;19994;-82
2022/05/02 01:05:21;;;;;;;2.90;2.67;;;;;;;;;;2611773;22;20078;-81
2022/05/02 01:07:46;;;;;;;5.72;3.30;;;;;;;;;;2611673;22;20306;-81
2022/05/02 01:08:47;;;;;;;3.40;3.10;;;;;;;;;;2594874;22;20326;-82
2022/05/02 01:09:50;;;;;;;;;;;;;;;;;;2598942;22;19987;-82
2022/05/02 01:10:52;;;;;;;3.95;3.22;;;;;;;;;;2594211;22;19907;-81
2022/05/02 01:11:55;;;;;;;6.63;2.90;;;;;;;;;;2594371;22;20430;-82
2022/05/02 01:12:55;;;;;;;4.32;2.63;;;;;;;;;;2611812;22;20063;-81
2022/05/02 01:13:55;;;;;;;;;;;;;;;;;;2612453;22;20031;-81
2022/05/02 01:15:00;;;;;;;5.23;3.47;;;;;;;;;;2612152;22;20226;-81
2022/05/02 01:16:13;;;;;;;7.65;3.58;;;;;;;;;;2612378;22;20068;-82
2022/05/02 01:17:14;;;;;;;5.70;2.83;;;;;;;;;;2612678;22;19991;-82
2022/05/02 01:18:14;;;;;;;;;;;;;;;;;;2608999;22;20066;-81
2022/05/02 01:19:15;;;;;;;3.27;2.97;;;;;;;;;;2612610;22;19907;-81
2022/05/02 01:20:15;;;;;;;5.57;3.50;;;;;;;;;;2607484;22;19998;-81
2022/05/02 01:21:19;;;;;;;;;;;;;;;;;;2612695;22;20054;-81
2022/05/02 01:22:20;;;;;;;3.38;2.70;;;;;;;;;;2612517;22;20302;-81
2022/05/02 01:23:20;;;;;;;;;;;;;;;;;;2595401;22;20074;-82
2022/05/02 01:24:21;;;;;;;5.13;3.10;;;;;;;;;;2599152;22;19910;-81
2022/05/02 01:25:21;;;;;;;;;;;;;;;;;;2595454;22;20003;-82
2022/05/02 01:26:22;;;;;;;3.97;2.40;;;;;;;;;;2599331;22;19986;-82
2022/05/02 01:27:22;;;;;;;;;;;;;;;;;;2613161;22;20140;-82
2022/05/02 01:28:29;;;;;;;4.83;2.57;;;;;;;;;;2609031;22;19910;-82
2022/05/02 01:29:32;;;;;;;6.07;3.08;;;;;;;;;;2612610;22;20086;-82
2022/05/02 01:30:32;;;;;;;4.63;3.22;;;;;;;;;;2607777;22;20341;-82
2022/05/02 01:31:33;;;;;;;;;;;;;;;;;;2612603;22;19987;-82
2022/05/02 01:32:33;;;;;;;3.28;2.97;;;;;;;;;;2612614;22;19911;-82
2022/05/02 01:33:35;;;;;;;3.75;2.65;;;;;;;;;;2594729;22;19992;-81
2022/05/02 01:34:37;;;;;;;5.03;3.42;;;;;;;;;;2599506;22;20050;-81
2022/05/02 01:35:37;;;;;;;4.05;3.20;;;;;;;;;;2594784;22;20373;-82
2022/05/02 01:36:37;;;;;;;;;;;;;;;;;;2599896;22;19995;-82
2022/05/02 01:37:38;;;;;;;4.70;2.63;;;;;;;;;;2595022;22;19986;-82
2022/05/02 01:38:38;;;;;;;3.90;3.20;;;;;;;;;;2599339;22;20083;-81
2022/05/02 01:39:40;;;;;;;4.43;2.80;;;;;;;;;;2612563;22;20062;-81
2022/05/02 01:40:40;;;;;;;4.32;3.28;;;;;;;;;;2612718;22;19990;-82
2022/05/02 01:41:43;;;;;;;;;;;;;;;;;;2613117;22;20486;-82
2022/05/02 01:42:43;;;;;;;5.18;2.70;;;;;;;;;;2595094;22;19910;-82
2022/05/02 01:43:43;;;;;;;;;;;;;;;;;;2599650;22;19988;-82
2022/05/02 01:44:44;;;;;;;5.68;3.13;;;;;;;;;;2594851;22;20163;-82
2022/05/02 01:45:44;;;;;;;;;;;;;;;;;;2599619;22;20001;-81
2022/05/02 01:46:44;;;;;;;3.85;2.72;;;;;;;;;;2594736;22;20041;-81
2022/05/02 01:47:45;;;;;;;5.03;2.92;;;;;;;;;;2599098;22;20375;-82
2022/05/02 01:48:45;;;;;;;6.03;3.35;;;;;;;;;;2594812;22;19991;-82
2022/05/02 01:49:46;;;;;;;;;;;;;;;;;;2599772;22;20019;-82
2022/05/02 01:50:46;;;;;;;7.43;2.90;;;;;;;;;;2612611;22;19991;-81
2022/05/02 01:51:46;;;;;;;;;;;;;;;;;;2595378;22;19992;-82
2022/05/02 01:52:48;;;;;;;5.60;2.73;;;;;;;;;;2594884;22;19945;-82
2022/05/02 01:53:48;;;;;;;7.00;3.38;;;;;;;;;;2594715;22;20097;-81
2022/05/02 01:54:48;;;;;;;;;;;;;;;;;;2582719;23;20075;-81
2022/05/02 01:55:49;;;;;;;5.77;3.43;;;;;;;;;;2599208;22;19903;-82
2022/05/02 01:56:49;;;;;;;;;;;;;;;;;;2595325;22;20397;-82
2022/05/02 01:57:50;;;;;;;3.50;3.20;;;;;;;;;;2582122;23;19939;-81
2022/05/02 01:58:50;;;;;;;4.97;3.28;;;;;;;;;;2599014;22;20437;-82
2022/05/02 01:59:51;;;;;;;;;;;;;;;;;;2595261;22;20009;-82
2022/05/02 02:00:51;;;;;;;5.57;3.40;;;;;;;;;;2599111;22;19911;-82
2022/05/02 02:01:51;;;;;;;;;;;;;;;;;;2613140;22;20352;-82
2022/05/02 02:02:52;;;;;;;3.88;3.28;;;;;;;;;;2594705;22;19904;-81
2022/05/02 02:03:52;;;;;;;;;;;;;;;;;;2599587;22;20023;-82
2022/05/02 02:06:14;;;;;;;6.82;3.70;;;;;;;;;;2603158;22;20069;-81
2022/05/02 02:07:14;;;;;;;6.72;3.17;;;;;;;;;;2594697;22;20475;-82
2022/05/02 02:08:34;;;;;;;;;;;;;;;;;;2599422;22;19997;-82
2022/05/02 02:09:34;;;;;;;5.32;3.03;;;;;;;;;;2594677;22;19903;-82
2022/05/02 02:10:35;;;;;;;;;;;;;;;;;;2599555;22;19987;-82
2022/05/02 02:11:35;;;;;;;6.07;3.70;;;;;;;;;;2612489;22;19982;-82
2022/05/02 02:12:35;;;;;;;5.88;2.80;;;;;;;;;;2612575;22;20018;-82
2022/05/02 02:13:38;;;;;;;2.90;2.60;;;;;;;;;;2612449;22;20358;-82
2022/05/02 02:14:38;;;;;;;4.07;3.30;;;;;;;;;;2612297;22;20010;-82
2022/05/02 02:15:39;;;;;;;;;;;;;;;;;;2595277;22;20019;-82
2022/05/02 02:16:39;;;;;;;7.27;4.27;;;;;;;;;;2599187;22;19903;-82
2022/05/02 02:17:43;;;;;;;3.70;3.38;;;;;;;;;;2594791;22;19996;-82
2022/05/02 02:18:43;;;;;;;5.25;3.60;;;;;;;;;;2599444;22;20164;-82
2022/05/02 02:19:44;;;;;;;;;;;;;;;;;;2607889;22;19995;-82
2022/05/02 02:20:47;;;;;;;3.60;3.30;;;;;;;;;;2611950;22;19977;-82
2022/05/02 02:21:47;;;;;;;5.18;2.72;;;;;;;;;;2594748;22;20003;-82
2022/05/02 02:22:48;;;;;;;;;;;;;;;;;;2599630;22;19992;-82
2022/05/02 02:23:48;;;;;;;4.43;3.30;;;;;;;;;;2611088;22;20480;-82
2022/05/02 02:24:49;;;;;;;4.47;3.10;;;;;;;;;;2594699;22;20028;-82
2022/05/02 02:25:50;;;;;;;5.60;3.05;;;;;;;;;;2581860;22;20502;-82
2022/05/02 02:26:53;;;;;;;5.57;3.53;;;;;;;;;;2582213;22;20113;-82
2022/05/02 02:27:56;;;;;;;4.43;3.38;;;;;;;;;;2599159;22;20070;-82
2022/05/02 02:28:58;;;;;;;6.55;3.72;;;;;;;;;;2612155;22;20088;-82
2022/05/02 02:29:59;;;;;;;4.15;3.13;;;;;;;;;;2612286;22;19999;-82
2022/05/02 02:31:00;;;;;;;5.75;3.72;;;;;;;;;;2612309;22;20018;-82
2022/05/02 02:32:00;;;;;;;;;;;;;;;;;;2612865;22;20398;-81
2022/05/02 02:33:01;;;;;;;4.90;3.30;;;;;;;;;;2612438;22;19902;-82
2022/05/02 02:34:04;;;;;;;4.68;3.30;;;;;;;;;;2612307;22;20074;-81
2022/05/02 02:35:05;;;;;;;3.75;3.20;;;;;;;;;;2612346;22;19995;-82
2022/05/02 02:36:06;;;;;;;5.35;3.40;;;;;;;;;;2612416;22;19999;-82
2022/05/02 02:37:06;;;;;;;;;;;;;;;;;;2612893;22;20022;-82
2022/05/02 02:38:09;;;;;;;3.77;2.50;;;;;;;;;;2612205;22;19960;-82
2022/05/02 02:39:09;;;;;;;4.05;3.00;;;;;;;;;;2612252;22;20501;-82
2022/05/02 02:40:10;;;;;;;;;;;;;;;;;;2612936;22;20033;-82
2022/05/02 02:41:10;;;;;;;4.97;2.78;;;;;;;;;;2612406;22;19977;-82
2022/05/02 02:42:10;;;;;;;;;;;;;;;;;;2595214;22;20426;-82
2022/05/02 02:43:11;;;;;;;5.82;3.83;;;;;;;;;;2598921;22;19903;-82
2022/05/02 02:44:11;;;;;;;;;;;;;;;;;;2595104;22;20490;-82
2022/05/02 02:45:19;;;;;;;5.22;3.95;;;;;;;;;;2581874;23;20018;-82
2022/05/02 02:46:22;;;;;;;3.67;2.70;;;;;;;;;;2600573;22;20057;-82
2022/05/02 02:47:22;;;;;;;5.70;3.00;;;;;;;;;;2612453;22;20319;-82
2022/05/02 02:48:22;;;;;;;;;;;;;;;;;;2607577;22;20027;-81
2022/05/02 02:49:23;;;;;;;5.28;3.92;;;;;;;;;;2611822;22;19914;-82
2022/05/02 02:50:23;;;;;;;;;;;;;;;;;;2595267;22;20480;-81
2022/05/02 02:51:23;;;;;;;6.05;3.65;;;;;;;;;;2598919;22;19934;-82
2022/05/02 02:52:24;;;;;;;;;;;;;;;;;;2612820;22;20006;-81
2022/05/02 02:53:29;;;;;;;4.30;3.22;;;;;;;;;;2612274;22;19902;-81
2022/05/02 02:54:29;;;;;;;4.22;3.55;;;;;;;;;;2594528;22;20069;-82
2022/05/02 02:55:29;;;;;;;;;;;;;;;;;;2595200;22;20060;-81
2022/05/02 02:56:32;;;;;;;6.65;3.92;;;;;;;;;;2611835;22;19907;-81
2022/05/02 02:57:33;;;;;;;5.38;3.70;;;;;;;;;;2594621;22;19996;-81
2022/05/02 02:58:34;;;;;;;3.53;3.22;;;;;;;;;;2594391;22;20309;-82
2022/05/02 02:59:34;;;;;;;;;;;;;;;;;;2582578;23;20009;-81
2022/05/02 03:00:35;;;;;;;6.30;3.70;;;;;;;;;;2598769;22;19951;-82
2022/05/02 03:01:35;;;;;;;;;;;;;;;;;;2595043;22;19991;-82
2022/05/02 03:02:37;;;;;;;4.57;3.57;;;;;;;;;;2581756;23;20226;-82
2022/05/02 03:03:38;;;;;;;7.18;3.95;;;;;;;;;;2598999;22;20360;-81
2022/05/02 03:06:03;;;;;;;5.15;3.45;;;;;;;;;;2611997;22;19903;-82
2022/05/02 03:07:05;;;;;;;4.95;3.30;;;;;;;;;;2612156;22;20014;-82
2022/05/02 03:08:05;;;;;;;6.93;3.38;;;;;;;;;;2594302;22;20000;-82
2022/05/02 03:09:06;;;;;;;;;;;;;;;;;;2599556;22;20129;-81
2022/05/02 03:10:06;;;;;;;6.40;3.97;;;;;;;;;;2612257;22;19903;-82
2022/05/02 03:11:07;;;;;;;;;;;;;;;;;;2612623;22;20002;-82
2022/05/02 03:12:08;;;;;;;6.57;3.93;;;;;;;;;;2612405;22;19903;-82
2022/05/02 03:13:08;;;;;;;6.18;4.22;;;;;;;;;;2594230;22;20027;-82
2022/05/02 03:14:08;;;;;;;;;;;;;;;;;;2599340;22;19992;-82
2022/05/02 03:15:12;;;;;;;3.92;3.08;;;;;;;;;;2594587;22;19991;-82
2022/05/02 03:16:12;;;;;;;5.72;3.90;;;;;;;;;;2595260;22;20055;-82
2022/05/02 03:17:13;;;;;;;;;;;;;;;;;;2607826;22;19999;-81
2022/05/02 03:18:15;;;;;;;6.20;4.13;;;;;;;;;;2594331;22;19978;-82
2022/05/02 03:19:16;;;;;;;6.30;3.78;;;;;;;;;;2594233;22;20007;-82
2022/05/02 03:20:16;;;;;;;;;;;;;;;;;;2595496;22;20039;-80
2022/05/02 03:21:16;;;;;;;5.75;4.03;;;;;;;;;;2612058;22;19907;-81
2022/05/02 03:22:17;;;;;;;;;;;;;;;;;;2595054;22;20493;-82
2022/05/02 03:23:20;;;;;;;5.90;4.27;;;;;;;;;;2598690;22;20375;-82
2022/05/02 03:24:20;;;;;;;5.45;4.07;;;;;;;;;;2612186;22;20420;-82
2022/05/02 03:25:20;;;;;;;;;;;;;;;;;;2612569;22;19996;-82
2022/05/02 03:26:21;;;;;;;6.50;3.45;;;;;;;;;;2594327;22;19978;-81
2022/05/02 03:27:21;;;;;;;;;;;;;;;;;;2599315;22;20006;-82
2022/05/02 03:28:21;;;;;;;4.72;3.75;;;;;;;;;;2593998;22;20334;-82
2022/05/02 03:29:22;;;;;;;4.57;3.55;;;;;;;;;;2598756;22;19999;-81
2022/05/02 03:30:22;;;;;;;4.97;3.35;;;;;;;;;;2611875;22;20059;-81
2022/05/02 03:31:25;;;;;;;;;;;;;;;;;;2595005;22;20396;-81
2022/05/02 03:32:25;;;;;;;4.05;2.47;;;;;;;;;;2598878;22;20204;-81
2022/05/02 03:33:25;;;;;;;;;;;;;;;;;;2612743;22;20019;-82
2022/05/02 03:34:26;;;;;;;6.88;3.50;;;;;;;;;;2612083;22;19906;-81
2022/05/02 03:35:26;;;;;;;;;;;;;;;;;;2612752;22;20420;-82
2022/05/02 03:36:37;;;;;;;9.38;3.72;;;;;;;;;;2607141;22;19933;-82
2022/05/02 03:37:37;;;;;;;6.95;3.60;;;;;;;;;;2594229;22;19988;-81
2022/05/02 03:38:37;;;;;;;;;;;;;;;;;;2599178;22;20049;-81
2022/05/02 03:39:38;;;;;;;5.17;3.43;;;;;;;;;;2594349;22;19935;-81
2022/05/02 03:40:38;;;;;;;;;;;;;;;;;;2582316;23;20481;-81
2022/05/02 03:41:39;;;;;;;6.80;3.57;;;;;;;;;;2581763;23;19904;-81
2022/05/02 03:42:39;;;;;;;;;;;;;;;;;;2594955;22;19996;-81
2022/05/02 03:43:39;;;;;;;5.97;3.57;;;;;;;;;;2598722;22;20218;-81
2022/05/02 03:44:43;;;;;;;;;;;;;;;;;;2594956;22;20308;-81
2022/05/02 03:45:43;;;;;;;7.75;4.07;;;;;;;;;;2599018;22;19903;-81
2022/05/02 03:46:43;;;;;;;;;;;;;;;;;;2612695;22;20390;-82
2022/05/02 03:47:44;;;;;;;10.47;4.50;;;;;;;;;;2611998;22;19903;-81
2022/05/02 03:48:44;;;;;;;3.70;3.05;;;;;;;;;;2611770;22;19991;-81
2022/05/02 03:49:45;;;;;;;4.22;3.38;;;;;;;;;;2611860;22;20018;-81
2022/05/02 03:50:54;;;;;;;;;;;;;;;;;;2612669;22;19987;-81
2022/05/02 03:51:54;;;;;;;6.15;3.83;;;;;;;;;;2594520;22;19903;-81
2022/05/02 03:52:54;;;;;;;;;;;;;;;;;;2599147;22;20477;-81
2022/05/02 03:53:55;;;;;;;4.47;2.63;;;;;;;;;;2612149;22;19984;-81
2022/05/02 03:54:55;;;;;;;7.60;3.53;;;;;;;;;;2594326;22;20023;-82
2022/05/02 03:55:55;;;;;;;7.63;4.10;;;;;;;;;;2581615;22;20493;-81
2022/05/02 03:56:58;;;;;;;;;;;;;;;;;;2594936;22;19996;-80
2022/05/02 03:57:58;;;;;;;4.70;3.65;;;;;;;;;;2599163;22;19941;-81
2022/05/02 03:58:59;;;;;;;;;;;;;;;;;;2612514;22;19999;-82
2022/05/02 03:59:59;;;;;;;4.28;3.88;;;;;;;;;;2612055;22;20371;-81
2022/05/02 04:01:01;;;;;;;;;;;;;;;;;;2612397;22;20026;-82
2022/05/02 04:02:02;;;;;;;4.57;3.03;;;;;;;;;;2612035;22;19906;-83
2022/05/02 04:03:02;;;;;;;;;;;;;;;;;;2612868;22;20074;-82
2022/05/02 04:04:03;;;;;;;5.43;3.50;;;;;;;;;;2612284;22;19910;-80
2022/05/02 04:05:04;;;;;;;4.40;2.97;;;;;;;;;;2612114;22;20322;-82
2022/05/02 04:06:04;;;;;;;;;;;;;;;;;;2594745;22;20065;-81
2022/05/02 04:07:07;;;;;;;7.07;3.30;;;;;;;;;;2594432;22;19977;-81
2022/05/02 04:08:08;;;;;;;6.15;3.65;;;;;;;;;;2607001;22;20090;-80
2022/05/02 04:09:08;;;;;;;;;;;;;;;;;;2611902;22;19999;-82
2022/05/02 04:10:14;;;;;;;5.57;3.97;;;;;;;;;;2612105;22;19903;-81
2022/05/02 04:11:17;;;;;;;5.63;3.55;;;;;;;;;;2594288;22;20000;-83
2022/05/02 04:12:44;;;;;;;4.00;3.00;;;;;;;;;;2581735;22;20360;-84
2022/05/02 04:13:55;;;;;;;7.22;3.97;;;;;;;;;;2604343;22;19995;-83
2022/05/02 04:15:00;;;;;;;5.50;3.75;;;;;;;;;;2594472;22;20398;-80
2022/05/02 04:16:01;;;;;;;5.35;3.60;;;;;;;;;;2599611;22;20025;-82
2022/05/02 04:17:10;;;;;;;;;;;;;;;;;;2594562;22;20000;-82
2022/05/02 04:19:19;;;;;;;;;;;;;;;;;;;;;
2022/05/02 04:20:22;;;;;;;5.47;4.15;;;;;;;;;;2601954;22;20029;-82
2022/05/02 04:21:33;;;;;;;6.35;3.70;;;;;;;;;;2612095;22;20061;-82
2022/05/02 04:22:56;;;;;;;6.38;3.85;;;;;;;;;;2611676;22;20011;-82
2022/05/02 04:24:03;;;;;;;5.90;3.50;;;;;;;;;;2611952;22;20060;-82
2022/05/02 04:25:09;;;;;;;5.63;3.33;;;;;;;;;;2611769;22;20483;-82
2022/05/02 04:26:19;;;;;;;5.63;3.60;;;;;;;;;;2594355;22;20378;-82
2022/05/02 04:27:20;;;;;;;5.28;4.00;;;;;;;;;;2583679;22;20007;-81
2022/05/02 04:28:23;;;;;;;;;;;;;;;;;;2598769;22;20050;-82
2022/05/02 04:29:33;;;;;;;5.35;3.47;;;;;;;;;;2611736;22;19910;-83
2022/05/02 04:30:38;;;;;;;6.38;3.38;;;;;;;;;;2612037;22;20454;-83
2022/05/02 04:31:47;;;;;;;4.43;3.40;;;;;;;;;;2594248;22;20094;-82
2022/05/02 04:33:00;;;;;;;;;;;;;;;;;;;;;
2022/05/02 04:34:04;;;;;;;4.78;3.22;;;;;;;;;;2611887;22;20019;-84
2022/05/02 04:35:10;;;;;;;6.15;2.88;;;;;;;;;;2611731;22;20410;-81
2022/05/02 04:36:18;;;;;;;5.57;3.65;;;;;;;;;;2606680;22;20010;-82
2022/05/02 04:37:18;;;;;;;6.05;3.45;;;;;;;;;;2598566;22;19995;-82
2022/05/02 04:38:22;;;;;;;4.72;3.08;;;;;;;;;;2598306;22;20078;-83
2022/05/02 04:39:26;;;;;;;4.72;3.45;;;;;;;;;;2611866;22;20335;-82
2022/05/02 04:40:45;;;;;;;5.97;2.70;;;;;;;;;;2593850;22;20026;-82
2022/05/02 04:42:37;;;;;;;;;;;;;;;;;;;;;
2022/05/02 04:43:55;;;;;;;;;;;;;;;;;;;;;
2022/05/02 04:44:58;;;;;;;6.35;3.30;;;;;;;;;;2608475;22;19999;-84
2022/05/02 04:46:10;;;;;;;2.78;2.58;;;;;;;;;;2612053;22;20150;-84
2022/05/02 04:47:18;;;;;;;4.82;2.97;;;;;;;;;;2611845;22;19995;-82
2022/05/02 04:48:20;;;;;;;5.15;3.35;;;;;;;;;;2609681;22;19999;-83
2022/05/02 04:49:21;;;;;;;4.22;2.92;;;;;;;;;;2611129;22;20026;-83
2022/05/02 04:50:24;;;;;;;5.60;2.97;;;;;;;;;;2612965;22;20314;-83
2022/05/02 04:51:25;;;;;;;4.38;3.20;;;;;;;;;;2595188;22;20181;-83
2022/05/02 04:52:28;;;;;;;5.07;3.20;;;;;;;;;;2599465;22;20335;-83
2022/05/02 04:53:33;;;;;;;4.72;3.13;;;;;;;;;;2612800;22;20274;-83
2022/05/02 04:54:36;;;;;;;7.25;3.38;;;;;;;;;;2612680;22;20002;-83
2022/05/02 04:55:48;;;;;;;4.65;2.92;;;;;;;;;;2607733;22;19999;-83
2022/05/02 04:56:51;;;;;;;5.18;3.38;;;;;;;;;;2612459;22;20005;-84
2022/05/02 04:58:04;;;;;;;3.25;2.95;;;;;;;;;;2607796;22;20010;-83
2022/05/02 05:00:58;;;;;;;5.63;3.08;;;;;;;;;;2598766;22;19999;-83
2022/05/02 05:02:06;;;;;;;4.00;3.33;;;;;;;;;;2613061;22;20053;-83
2022/05/02 05:03:11;;;;;;;4.80;2.72;;;;;;;;;;2595053;22;20062;-81
2022/05/02 05:04:16;;;;;;;6.38;3.47;;;;;;;;;;2595221;22;19996;-81
2022/05/02 05:05:16;;;;;;;5.35;3.75;;;;;;;;;;2583130;22;20007;-82
2022/05/02 05:06:26;;;;;;;5.60;3.58;;;;;;;;;;2599354;22;20015;-82
2022/05/02 05:07:29;;;;;;;6.88;3.58;;;;;;;;;;2595220;22;20378;-82
2022/05/02 05:08:30;;;;;;;3.90;3.22;;;;;;;;;;2595249;22;19999;-82
2022/05/02 05:09:40;;;;;;;6.22;2.78;;;;;;;;;;2612312;22;20022;-82
2022/05/02 05:11:14;;;;;;;5.18;2.90;;;;;;;;;;2599274;22;19999;-83
2022/05/02 05:12:37;;;;;;;4.40;3.15;;;;;;;;;;2572596;23;20432;-82
2022/05/02 05:16:20;;;;;;;3.80;3.15;;;;;;;;;;2608534;22;19990;-85
2022/05/02 05:17:03;;;;;;;4.80;3.33;;;;;;;;;;2612882;22;19995;-83
2022/05/02 05:19:02;;;;;;;3.58;2.97;;;;;;;;;;2594589;22;20078;-83
2022/05/02 05:20:30;;;;;;;;;;;;;;;;;;;;;
2022/05/02 05:22:15;;;;;;;4.45;3.10;;;;;;;;;;2612781;22;20333;-83
2022/05/02 05:23:42;;;;;;;;;;;;;;;;;;;;;
2022/05/02 05:24:57;;;;;;;2.80;2.28;;;;;;;;;;2612054;22;19991;-83
2022/05/02 05:26:20;;;;;;;4.20;3.20;;;;;;;;;;2612385;22;20355;-82
2022/05/02 05:27:40;;;;;;;6.65;3.25;;;;;;;;;;2594888;22;20480;-82
2022/05/02 05:29:21;;;;;;;4.20;2.72;;;;;;;;;;2581857;23;20084;-83
2022/05/02 05:30:26;;;;;;;4.28;3.05;;;;;;;;;;2598492;22;20023;-83
2022/05/02 05:31:38;;;;;;;5.10;3.08;;;;;;;;;;2594862;22;20011;-84
2022/05/02 05:33:04;;;;;;;4.65;3.40;;;;;;;;;;2601956;22;20385;-83
2022/05/02 05:34:27;;;;;;;3.72;2.90;;;;;;;;;;2594701;22;20006;-81
2022/05/02 05:36:12;;;;;;;5.78;3.30;;;;;;;;;;2603979;22;20073;-83
2022/05/02 05:37:36;;;;;;;3.28;2.80;;;;;;;;;;2608385;22;20023;-83
2022/05/02 05:38:46;;;;;;;5.07;3.05;;;;;;;;;;2594321;22;20375;-82
2022/05/02 05:40:04;;;;;;;5.57;3.60;;;;;;;;;;2588589;22;20074;-83
2022/05/02 05:41:34;;;;;;;5.10;2.95;;;;;;;;;;2603427;22;20271;-83
2022/05/02 05:42:56;;;;;;;3.97;2.88;;;;;;;;;;2573204;23;19996;-82
2022/05/02 05:44:05;;;;;;;3.85;3.20;;;;;;;;;;2612564;22;20060;-82
2022/05/02 05:45:47;;;;;;;2.78;2.17;;;;;;;;;;2612637;22;19991;-82
2022/05/02 05:47:17;;;;;;;3.83;2.83;;;;;;;;;;2612747;22;19991;-83
2022/05/02 05:48:40;;;;;;;5.78;3.13;;;;;;;;;;2612215;22;19999;-82
2022/05/02 05:50:03;;;;;;;5.75;2.90;;;;;;;;;;2612497;22;20431;-84
2022/05/02 05:51:12;;;;;;;3.85;3.00;;;;;;;;;;2612640;22;20028;-83
2022/05/02 05:52:30;;;;;;;3.45;2.33;;;;;;;;;;2612691;22;20002;-85
2022/05/02 05:53:40;;;;;;;;;;;;;;;;;;;;;
2022/05/02 05:55:05;;;;;;;2.78;2.40;;;;;;;;;;2598229;22;20043;-84
2022/05/02 05:56:23;;;;;;;6.10;3.38;;;;;;;;;;2612059;22;19995;-83
2022/05/02 05:57:34;;;;;;;4.80;2.65;;;;;;;;;;2612076;22;20003;-84
2022/05/02 05:58:34;;;;;;;;;;;;;;;;;;2613131;22;20053;-82
2022/05/02 05:59:56;;;;;;;;;;;;;;;;;;2613182;22;19965;-84
2022/05/02 06:01:14;;;;;;;3.00;2.70;;;;;;;;;;2612515;22;19943;-85
2022/05/02 06:02:21;;;;;;;4.05;2.17;;;;;;;;;;2612561;22;20002;-83
2022/05/02 06:03:40;;;;;;;3.72;2.50;;;;;;;;;;2612696;22;20430;-83
2022/05/02 06:04:43;;;;;;;5.05;2.72;;;;;;;;;;2598993;22;20460;-82
2022/05/02 06:05:49;;;;;;;3.95;2.55;;;;;;;;;;2599469;22;19988;-85
2022/05/02 06:06:50;;;;;;;4.25;2.90;;;;;;;;;;2612810;22;19991;-84
2022/05/02 06:07:52;;;;;;;4.63;2.40;;;;;;;;;;2607517;22;20076;-84
2022/05/02 06:08:58;;;;;;;5.15;2.67;;;;;;;;;;2612181;22;19995;-84
2022/05/02 06:10:03;;;;;;;2.88;2.45;;;;;;;;;;2612436;22;20418;-82
2022/05/02 06:11:07;;;;;;;3.78;2.50;;;;;;;;;;2612613;22;20046;-84
2022/05/02 06:12:11;;;;;;;4.85;3.00;;;;;;;;;;2612652;22;20230;-83
2022/05/02 06:13:16;;;;;;;4.10;2.30;;;;;;;;;;2612433;22;19992;-86
2022/05/02 06:14:21;;;;;;;6.90;2.45;;;;;;;;;;2594795;22;20070;-83
2022/05/02 06:19:26;;;;;;;;;;;;;;;;;;2613087;22;19995;-83
2022/05/02 06:20:31;;;;;;;;;;;;;;;;;;2612853;22;19986;-85
2022/05/02 06:21:35;;;;;;;4.03;2.22;;;;;;;;;;2612409;22;19998;-85
2022/05/02 06:22:38;;;;;;;3.65;2.30;;;;;;;;;;2612481;22;19991;-84
2022/05/02 06:23:52;;;;;;;3.67;2.65;;;;;;;;;;2612260;22;20399;-86
2022/05/02 06:24:56;;;;;;;4.10;2.50;;;;;;;;;;2610596;22;19999;-85
2022/05/02 06:26:01;;;;;;;5.25;2.17;;;;;;;;;;2594448;22;20330;-84
2022/05/02 06:27:06;;;;;;;4.10;2.75;;;;;;;;;;2582381;22;20007;-85
2022/05/02 06:28:08;;;;;;;3.15;2.13;;;;;;;;;;2599935;22;20029;-85
2022/05/02 06:29:17;;;;;;;5.18;2.38;;;;;;;;;;2608314;22;20513;-87
2022/05/02 06:30:22;;;;;;;3.37;2.10;;;;;;;;;;2607519;22;20318;-87
2022/05/02 06:31:39;;;;;;;3.92;2.60;;;;;;;;;;2607495;22;20304;-85
2022/05/02 06:32:44;;;;;;;3.03;2.10;;;;;;;;;;2598995;22;19995;-84
2022/05/02 06:34:03;;;;;;;;;;;;;;;;;;;;;
2022/05/02 06:35:52;;;;;;;3.05;2.10;;;;;;;;;;2612364;22;20002;-85
2022/05/02 06:37:08;;;;;;;3.75;1.92;;;;;;;;;;2611241;22;19995;-85
2022/05/02 06:38:50;;;;;;;5.57;2.20;;;;;;;;;;2611920;22;20006;-86
2022/05/02 06:40:19;;;;;;;4.30;2.00;;;;;;;;;;2607495;22;19995;-84
2022/05/02 06:41:47;;;;;;;2.67;1.73;;;;;;;;;;2599101;22;20047;-86
2022/05/02 06:43:25;;;;;;;1.77;1.60;;;;;;;;;;2605114;22;20003;-86
2022/05/02 06:44:51;;;;;;;3.58;2.22;;;;;;;;;;2590789;22;20019;-85
2022/05/02 06:45:56;;;;;;;3.28;2.30;;;;;;;;;;2612265;22;20171;-85
2022/05/02 06:47:15;;;;;;;3.08;1.85;;;;;;;;;;2610366;22;20049;-85
2022/05/02 06:48:28;;;;;;;3.25;1.80;;;;;;;;;;2594809;22;20007;-86
2022/05/02 06:49:35;;;;;;;3.75;2.03;;;;;;;;;;2601632;22;19992;-84
2022/05/02 06:50:38;;;;;;;3.45;2.80;;;;;;;;;;2611891;22;19991;-84
2022/05/02 06:51:41;;;;;;;3.13;2.42;;;;;;;;;;2612432;22;19995;-90
2022/05/02 06:52:56;;;;;;;2.97;1.77;;;;;;;;;;2612219;22;20015;-86
2022/05/02 06:54:16;;;;;;;2.58;2.05;;;;;;;;;;2612144;22;20418;-86
2022/05/02 06:55:45;;;;;;;4.38;2.10;;;;;;;;;;2612336;22;20025;-85
2022/05/02 06:56:57;;;;;;;2.35;1.83;;;;;;;;;;2612401;22;20054;-86
2022/05/02 06:58:39;;;;;;;2.17;2.03;;;;;;;;;;2594593;22;20006;-86
2022/05/02 06:59:59;;;;;;;2.75;2.05;;;;;;;;;;2547890;22;20035;-85